Time;durP1;ratioP1;P1;durP2;ratioP2;P2;SDS_P1;SDS_P2;PMS_P1;PMS_P2;Temp;Humidity;BMP_temperature;BMP_pressure;BME280_temperature;BME280_humidity;BME280_pressure;Samples;Min_cycle;Max_cycle;Signal;HPM_P1;HPM_P2
2022/02/17 00:00:45;;;;;;;22.10;21.10;;;14.50;83.10;;;;;;4961187;28;20042;-88
2022/02/17 00:03:11;;;;;;;22.17;21.17;;;14.50;83.10;;;;;;4948629;28;20039;-89
2022/02/17 00:05:37;;;;;;;21.50;20.50;;;14.50;83.10;;;;;;4961174;28;20034;-89
2022/02/17 00:08:04;;;;;;;22.23;21.23;;;14.50;83.10;;;;;;4964083;28;20058;-89
2022/02/17 00:10:30;;;;;;;21.30;20.30;;;14.50;83.10;;;;;;4958936;28;20038;-88
2022/02/17 00:12:57;;;;;;;21.73;20.73;;;14.50;83.10;;;;;;4955592;28;20510;-88
2022/02/17 00:15:25;;;;;;;22.50;21.40;;;14.50;83.10;;;;;;4957578;28;20043;-88
2022/02/17 00:17:51;;;;;;;22.02;21.02;;;14.50;83.10;;;;;;4969168;28;20035;-88
2022/02/17 00:20:17;;;;;;;22.40;21.30;;;14.50;83.10;;;;;;4961916;28;20042;-88
2022/02/17 00:22:43;;;;;;;22.10;21.10;;;14.50;83.00;;;;;;4958479;28;20043;-88
2022/02/17 00:25:09;;;;;;;21.65;20.65;;;14.50;83.10;;;;;;4956417;28;20034;-87
2022/02/17 00:27:36;;;;;;;20.90;19.90;;;14.50;83.10;;;;;;4954603;28;20027;-89
2022/02/17 00:30:03;;;;;;;22.58;21.58;;;14.50;83.10;;;;;;4957760;28;20433;-80
2022/02/17 00:32:29;;;;;;;22.50;21.40;;;14.60;83.00;;;;;;4968967;28;20056;-88
2022/02/17 00:34:56;;;;;;;21.63;20.63;;;14.60;83.80;;;;;;4960895;28;20488;-88
2022/02/17 00:37:22;;;;;;;22.65;21.65;;;14.50;83.00;;;;;;4966591;28;20031;-88
2022/02/17 00:39:48;;;;;;;23.35;22.25;;;14.50;82.90;;;;;;4963937;28;20043;-88
2022/02/17 00:42:15;;;;;;;22.30;21.30;;;14.60;83.00;;;;;;4960848;28;20036;-88
2022/02/17 00:44:42;;;;;;;22.25;21.25;;;14.50;83.00;;;;;;4968935;28;20058;-88
2022/02/17 00:47:11;;;;;;;23.25;22.15;;;14.50;83.00;;;;;;4962066;28;20051;-88
2022/02/17 00:49:37;;;;;;;23.20;22.10;;;14.60;83.10;;;;;;4956392;28;20414;-89
2022/02/17 00:52:03;;;;;;;23.05;21.95;;;14.60;83.00;;;;;;4951868;28;20031;-88
2022/02/17 00:54:30;;;;;;;22.38;21.38;;;14.60;83.10;;;;;;4965182;28;20402;-88
2022/02/17 00:56:56;;;;;;;24.95;23.77;;;14.50;83.00;;;;;;4958535;28;20406;-89
2022/02/17 00:59:22;;;;;;;22.83;21.73;;;14.60;83.10;;;;;;4957788;28;20047;-89
2022/02/17 01:01:48;;;;;;;23.15;22.05;;;14.50;83.00;;;;;;4964724;28;20043;-88
2022/02/17 01:04:15;;;;;;;23.13;22.05;;;14.60;83.00;;;;;;4963771;28;20034;-88
2022/02/17 01:06:41;;;;;;;22.02;21.02;;;14.60;83.00;;;;;;4937382;29;20034;-88
2022/02/17 01:09:08;;;;;;;22.63;21.63;;;14.60;83.10;;;;;;4968632;28;20035;-89
2022/02/17 01:11:34;;;;;;;22.63;21.63;;;14.50;83.00;;;;;;4958864;28;20074;-88
2022/02/17 01:14:01;;;;;;;22.58;21.58;;;14.60;83.10;;;;;;4966581;28;20041;-88
2022/02/17 01:16:27;;;;;;;26.00;24.80;;;14.60;83.10;;;;;;4967394;28;20046;-89
2022/02/17 01:18:53;;;;;;;22.10;21.10;;;14.50;83.00;;;;;;4958456;28;20039;-89
2022/02/17 01:21:19;;;;;;;22.52;21.52;;;14.60;83.10;;;;;;4956475;28;20042;-89
2022/02/17 01:23:45;;;;;;;23.50;22.40;;;14.60;83.10;;;;;;4957980;28;20035;-88
2022/02/17 01:26:13;;;;;;;23.33;22.23;;;14.50;83.10;;;;;;4955573;28;20035;-88
2022/02/17 01:28:39;;;;;;;22.80;21.75;;;14.50;83.10;;;;;;4956238;28;20043;-89
2022/02/17 01:31:05;;;;;;;23.45;22.35;;;14.60;83.10;;;;;;4962503;28;20418;-88
2022/02/17 01:33:31;;;;;;;24.58;23.48;;;14.60;83.10;;;;;;4968470;28;20042;-88
2022/02/17 01:35:57;;;;;;;22.20;21.20;;;14.50;83.10;;;;;;4966412;28;20034;-88
2022/02/17 01:38:23;;;;;;;23.60;22.50;;;14.50;83.10;;;;;;4963100;28;20039;-89
2022/02/17 01:40:51;;;;;;;22.38;21.38;;;14.50;83.10;;;;;;4961007;28;20034;-88
2022/02/17 01:43:17;;;;;;;22.60;21.50;;;14.50;83.10;;;;;;4965360;28;20046;-88
2022/02/17 01:45:44;;;;;;;22.38;21.38;;;14.50;83.10;;;;;;4967966;28;20027;-89
2022/02/17 01:48:10;;;;;;;22.45;21.45;;;14.50;83.20;;;;;;4971182;28;20062;-88
2022/02/17 01:50:40;;;;;;;20.45;19.55;;;14.50;83.20;;;;;;4963106;28;20035;-89
2022/02/17 01:53:08;;;;;;;21.58;20.58;;;14.50;83.20;;;;;;4966903;28;20031;-89
2022/02/17 01:55:36;;;;;;;23.25;22.15;;;14.50;83.20;;;;;;4966462;28;20473;-89
2022/02/17 01:58:02;;;;;;;21.67;20.67;;;14.50;83.20;;;;;;4949021;28;20046;-89
2022/02/17 02:00:28;;;;;;;20.25;19.35;;;14.50;83.20;;;;;;4960538;28;20034;-88
2022/02/17 02:02:54;;;;;;;21.27;20.27;;;14.40;83.20;;;;;;4960248;28;20038;-88
2022/02/17 02:05:20;;;;;;;21.40;20.40;;;14.50;83.30;;;;;;4969434;28;20035;-88
2022/02/17 02:07:47;;;;;;;21.02;20.02;;;14.50;83.30;;;;;;4966683;28;20422;-87
2022/02/17 02:10:13;;;;;;;21.05;20.05;;;14.40;83.30;;;;;;4953080;28;20416;-89
2022/02/17 02:12:39;;;;;;;21.80;20.80;;;14.40;83.30;;;;;;4973664;28;20117;-88
2022/02/17 02:15:05;;;;;;;21.35;20.35;;;14.40;83.30;;;;;;4965498;28;20035;-88
2022/02/17 02:17:33;;;;;;;20.55;19.63;;;14.40;83.30;;;;;;4962383;28;20394;-88
2022/02/17 02:20:03;;;;;;;22.05;21.05;;;14.40;83.30;;;;;;4963432;28;20047;-89
2022/02/17 02:22:31;;;;;;;22.55;21.50;;;14.40;83.30;;;;;;4970717;28;20038;-88
2022/02/17 02:25:00;;;;;;;22.30;21.30;;;14.40;83.40;;;;;;4970760;28;20030;-89
2022/02/17 02:27:27;;;;;;;21.30;20.30;;;14.40;83.40;;;;;;4972019;28;20058;-88
2022/02/17 02:29:53;;;;;;;21.27;20.27;;;14.40;83.30;;;;;;4959739;28;20050;-89
2022/02/17 02:32:19;;;;;;;22.58;21.58;;;14.40;83.30;;;;;;4960053;28;20051;-88
2022/02/17 02:34:45;;;;;;;21.02;20.02;;;14.40;83.40;;;;;;4968277;28;20640;-88
2022/02/17 02:37:11;;;;;;;21.83;20.83;;;14.40;83.40;;;;;;4971082;28;20038;-89
2022/02/17 02:39:37;;;;;;;23.63;22.52;;;14.40;83.50;;;;;;4957589;28;20043;-88
2022/02/17 02:42:04;;;;;;;22.27;21.27;;;14.30;83.40;;;;;;4958862;28;20038;-89
2022/02/17 02:44:30;;;;;;;22.55;21.55;;;14.40;83.50;;;;;;4969299;28;20038;-89
2022/02/17 02:46:56;;;;;;;22.48;21.48;;;14.30;83.40;;;;;;4966305;28;20163;-88
2022/02/17 02:49:22;;;;;;;21.05;20.05;;;14.30;83.50;;;;;;4965039;28;20054;-88
2022/02/17 02:51:49;;;;;;;20.95;19.95;;;14.40;83.50;;;;;;4971261;28;20051;-89
2022/02/17 02:54:15;;;;;;;21.60;20.60;;;14.30;83.40;;;;;;4961782;28;20355;-88
2022/02/17 02:56:41;;;;;;;21.17;20.17;;;14.30;83.50;;;;;;4966832;28;20039;-89
2022/02/17 02:59:08;;;;;;;21.95;20.95;;;14.30;83.40;;;;;;4947798;29;20031;-88
2022/02/17 03:01:34;;;;;;;21.27;20.27;;;14.30;83.40;;;;;;4958821;28;20043;-89
2022/02/17 03:04:00;;;;;;;22.38;21.38;;;14.30;83.40;;;;;;4951008;28;20414;-88
2022/02/17 03:06:30;;;;;;;21.92;20.92;;;14.30;83.40;;;;;;4951777;28;20039;-89
2022/02/17 03:08:56;;;;;;;21.27;20.27;;;14.30;83.40;;;;;;4950636;29;20035;-88
2022/02/17 03:11:22;;;;;;;21.70;20.70;;;14.30;83.40;;;;;;4951067;28;20386;-89
2022/02/17 03:13:49;;;;;;;21.55;20.55;;;14.30;83.40;;;;;;4954687;28;20042;-88
2022/02/17 03:16:15;;;;;;;24.13;22.30;;;14.30;83.40;;;;;;4955807;28;20397;-89
2022/02/17 03:18:41;;;;;;;21.30;20.30;;;14.30;83.40;;;;;;4952472;29;20046;-88
2022/02/17 03:21:07;;;;;;;21.73;20.73;;;14.30;83.40;;;;;;4954268;28;20397;-88
2022/02/17 03:23:33;;;;;;;22.90;21.67;;;14.30;83.40;;;;;;4953676;28;20430;-89
2022/02/17 03:26:00;;;;;;;22.15;21.15;;;14.30;83.40;;;;;;4957854;28;20042;-89
2022/02/17 03:28:26;;;;;;;21.70;20.70;;;14.30;83.40;;;;;;4952393;28;20046;-89
2022/02/17 03:30:54;;;;;;;21.45;20.45;;;14.30;83.40;;;;;;4963789;28;20505;-89
2022/02/17 03:33:21;;;;;;;22.05;21.05;;;14.30;83.40;;;;;;4952799;28;20059;-88
2022/02/17 03:35:47;;;;;;;19.58;18.67;;;14.30;83.40;;;;;;4952559;28;20037;-89
2022/02/17 03:38:14;;;;;;;21.83;20.83;;;14.30;83.40;;;;;;4944681;28;20445;-88
2022/02/17 03:40:40;;;;;;;22.02;21.02;;;14.30;83.40;;;;;;4966830;28;20022;-89
2022/02/17 03:43:06;;;;;;;21.75;20.75;;;14.30;83.40;;;;;;4956819;28;20031;-88
2022/02/17 03:45:32;;;;;;;22.10;21.10;;;14.30;83.40;;;;;;4970279;28;20402;-88
2022/02/17 03:47:59;;;;;;;21.48;20.48;;;14.20;83.40;;;;;;4958358;28;20058;-89
2022/02/17 03:50:25;;;;;;;21.95;20.95;;;14.20;83.40;;;;;;4960358;28;20030;-89
2022/02/17 03:52:51;;;;;;;21.13;20.13;;;14.10;83.50;;;;;;4967933;28;20399;-88
2022/02/17 03:55:17;;;;;;;21.60;20.60;;;14.20;83.60;;;;;;4969291;28;20035;-88
2022/02/17 03:57:46;;;;;;;22.20;21.20;;;14.10;83.50;;;;;;4955295;28;20033;-89
2022/02/17 04:00:13;;;;;;;21.27;20.27;;;14.10;83.60;;;;;;4969745;28;20035;-89
2022/02/17 04:02:39;;;;;;;21.38;20.38;;;14.10;83.60;;;;;;4958631;28;20035;-88
2022/02/17 04:05:06;;;;;;;21.30;20.30;;;14.10;83.60;;;;;;4957994;28;20027;-86
2022/02/17 04:07:32;;;;;;;21.92;20.92;;;14.10;83.60;;;;;;4960316;28;20050;-85
2022/02/17 04:09:58;;;;;;;20.80;19.80;;;14.10;83.60;;;;;;4952048;28;20039;-86
2022/02/17 04:12:24;;;;;;;21.75;20.75;;;14.00;83.60;;;;;;4953472;28;20055;-86
2022/02/17 04:14:50;;;;;;;24.08;22.98;;;14.00;83.70;;;;;;4948115;29;20035;-87
2022/02/17 04:17:17;;;;;;;21.80;20.80;;;14.00;83.70;;;;;;4939396;28;20041;-83
2022/02/17 04:19:43;;;;;;;21.50;20.50;;;14.00;83.80;;;;;;4953706;28;20315;-83
2022/02/17 04:22:09;;;;;;;22.17;21.08;;;13.90;83.70;;;;;;4950187;28;20039;-83
2022/02/17 04:24:35;;;;;;;22.17;21.17;;;13.90;83.70;;;;;;4967966;28;20394;-83
2022/02/17 04:27:01;;;;;;;20.55;19.65;;;13.90;83.80;;;;;;4953361;28;20043;-84
2022/02/17 04:29:27;;;;;;;21.20;20.13;;;13.90;83.80;;;;;;4955662;28;20061;-83
2022/02/17 04:31:53;;;;;;;20.83;19.83;;;13.80;83.80;;;;;;4948969;28;20043;-84
2022/02/17 04:34:19;;;;;;;21.85;20.75;;;13.80;83.80;;;;;;4953317;29;20557;-83
2022/02/17 04:36:46;;;;;;;20.55;19.60;;;13.80;83.90;;;;;;4956840;28;20393;-85
2022/02/17 04:39:12;;;;;;;20.60;19.70;;;13.70;83.80;;;;;;4941483;29;20047;-85
2022/02/17 04:44:23;;;;;;;20.50;19.60;;;13.70;83.90;;;;;;4954398;28;20042;-84
2022/02/17 04:46:49;;;;;;;20.67;19.67;;;13.70;83.90;;;;;;4948948;28;20496;-85
2022/02/17 04:49:15;;;;;;;20.10;19.20;;;13.70;83.80;;;;;;4946585;29;20035;-86
2022/02/17 04:51:42;;;;;;;20.80;19.80;;;13.70;83.80;;;;;;4950676;28;20058;-86
2022/02/17 04:54:08;;;;;;;20.33;19.42;;;13.70;83.80;;;;;;4956412;28;20478;-86
2022/02/17 04:56:34;;;;;;;21.38;20.38;;;13.70;83.80;;;;;;4953007;28;20032;-85
2022/02/17 04:59:00;;;;;;;20.15;19.25;;;13.60;83.80;;;;;;4948631;29;20058;-85
2022/02/17 05:01:26;;;;;;;21.05;20.05;;;13.60;83.90;;;;;;4950975;28;20039;-85
2022/02/17 05:03:52;;;;;;;21.48;20.20;;;13.60;83.90;;;;;;4955457;28;20031;-82
2022/02/17 05:06:18;;;;;;;22.00;20.75;;;13.60;83.90;;;;;;4959540;28;20035;-85
2022/02/17 05:08:45;;;;;;;21.10;20.00;;;13.60;83.90;;;;;;4952806;29;20035;-85
2022/02/17 05:11:11;;;;;;;20.73;19.80;;;13.50;83.80;;;;;;4952546;29;20047;-85
2022/02/17 05:13:37;;;;;;;21.08;20.08;;;13.50;83.90;;;;;;4950883;29;20505;-82
2022/02/17 05:16:04;;;;;;;21.80;20.80;;;13.50;83.90;;;;;;4947908;28;20042;-84
2022/02/17 05:18:30;;;;;;;21.95;20.55;;;13.50;83.90;;;;;;4937852;29;20322;-84
2022/02/17 05:20:56;;;;;;;21.50;20.50;;;13.50;84.00;;;;;;4940535;28;20058;-84
2022/02/17 05:23:23;;;;;;;21.20;20.20;;;13.40;83.90;;;;;;4943926;29;20034;-85
2022/02/17 05:25:49;;;;;;;20.23;19.33;;;13.40;83.90;;;;;;4959008;28;20047;-84
2022/02/17 05:28:16;;;;;;;21.95;20.95;;;13.40;83.80;;;;;;4953722;29;20039;-82
2022/02/17 05:30:45;;;;;;;21.83;20.83;;;13.40;83.80;;;;;;4950569;28;20047;-86
2022/02/17 05:33:12;;;;;;;21.08;20.08;;;13.30;83.90;;;;;;4937130;29;20074;-86
2022/02/17 05:35:38;;;;;;;20.80;19.88;;;13.30;83.90;;;;;;4948760;28;20023;-86
2022/02/17 05:38:05;;;;;;;20.33;19.42;;;13.30;83.90;;;;;;4954573;28;20046;-90
2022/02/17 05:40:31;;;;;;;22.13;21.13;;;13.30;83.90;;;;;;4952736;28;20059;-87
2022/02/17 05:42:57;;;;;;;21.90;20.90;;;13.30;83.90;;;;;;4952087;29;20042;-87
2022/02/17 05:45:23;;;;;;;23.45;21.77;;;13.30;83.90;;;;;;4952762;28;20062;-87
2022/02/17 05:47:49;;;;;;;22.38;21.38;;;13.20;83.80;;;;;;4952553;28;20059;-87
2022/02/17 05:50:15;;;;;;;20.65;19.73;;;13.20;83.80;;;;;;4945966;29;20043;-87
2022/02/17 05:52:42;;;;;;;21.92;20.92;;;13.20;83.90;;;;;;4961118;28;20055;-87
2022/02/17 05:55:08;;;;;;;22.02;21.02;;;13.20;83.90;;;;;;4952981;29;20032;-87
2022/02/17 05:57:34;;;;;;;22.02;21.02;;;13.20;83.90;;;;;;4951655;28;20051;-86
2022/02/17 06:00:00;;;;;;;22.15;21.10;;;13.10;83.80;;;;;;4940383;29;20498;-87
2022/02/17 06:02:26;;;;;;;21.60;20.60;;;13.10;83.80;;;;;;4957575;28;20043;-87
2022/02/17 06:04:53;;;;;;;22.35;21.05;;;13.10;83.90;;;;;;4963511;28;20031;-87
2022/02/17 06:07:19;;;;;;;20.88;19.90;;;13.10;83.90;;;;;;4955531;28;20042;-87
2022/02/17 06:09:45;;;;;;;21.50;20.50;;;13.10;83.90;;;;;;4937323;29;20023;-87
2022/02/17 06:12:11;;;;;;;21.42;20.35;;;13.10;83.90;;;;;;4948339;28;20049;-86
2022/02/17 06:14:38;;;;;;;21.65;20.65;;;13.00;83.80;;;;;;4952204;28;20505;-87
2022/02/17 06:17:04;;;;;;;22.85;21.42;;;13.00;83.80;;;;;;4956624;28;20040;-87
2022/02/17 06:19:30;;;;;;;21.45;20.38;;;13.00;83.80;;;;;;4953146;28;20032;-87
2022/02/17 06:21:56;;;;;;;21.38;20.38;;;13.00;83.80;;;;;;4952304;29;20039;-87
2022/02/17 06:24:22;;;;;;;20.45;19.55;;;13.00;83.80;;;;;;4954086;28;20046;-87
2022/02/17 06:26:49;;;;;;;20.60;19.70;;;13.00;83.80;;;;;;4941878;29;20047;-86
2022/02/17 06:29:15;;;;;;;20.65;19.70;;;13.00;83.80;;;;;;4943441;29;20388;-87
2022/02/17 06:31:41;;;;;;;20.98;19.88;;;13.00;83.80;;;;;;4941529;28;20031;-86
2022/02/17 06:34:07;;;;;;;20.58;19.38;;;13.00;83.80;;;;;;4974735;28;20364;-87
2022/02/17 06:36:33;;;;;;;21.05;20.05;;;13.00;83.70;;;;;;4954724;28;20038;-86
2022/02/17 06:38:59;;;;;;;20.67;19.45;;;12.90;83.60;;;;;;4956557;28;20379;-87
2022/02/17 06:41:25;;;;;;;20.15;19.25;;;13.00;83.70;;;;;;4932539;29;20494;-87
2022/02/17 06:43:51;;;;;;;21.38;20.08;;;13.00;83.70;;;;;;4950884;28;20036;-88
2022/02/17 06:46:18;;;;;;;20.40;19.50;;;13.00;83.70;;;;;;4953858;28;20036;-86
2022/02/17 06:48:44;;;;;;;21.00;20.00;;;13.00;83.60;;;;;;4954765;28;20056;-87
2022/02/17 06:51:12;;;;;;;21.40;20.38;;;13.00;83.60;;;;;;4955669;28;20035;-87
2022/02/17 06:53:40;;;;;;;20.45;19.45;;;13.00;83.60;;;;;;4957472;28;20047;-87
2022/02/17 06:56:06;;;;;;;19.85;18.95;;;13.00;83.60;;;;;;4963141;28;20034;-87
2022/02/17 06:58:32;;;;;;;22.15;20.35;;;13.00;83.50;;;;;;4953587;28;20043;-86
2022/02/17 07:00:59;;;;;;;20.33;19.40;;;13.00;83.50;;;;;;4955238;28;20028;-87
2022/02/17 07:03:25;;;;;;;20.38;19.48;;;13.00;83.50;;;;;;4951924;28;20051;-87
2022/02/17 07:05:51;;;;;;;19.60;18.65;;;13.00;83.50;;;;;;4954861;29;20039;-88
2022/02/17 07:08:18;;;;;;;20.95;19.95;;;13.00;83.50;;;;;;4943054;28;20405;-86
2022/02/17 07:10:56;;;;;;;20.30;19.40;;;13.00;83.50;;;;;;4957414;28;20055;-84
2022/02/17 07:13:23;;;;;;;19.77;18.88;;;13.10;83.50;;;;;;4952746;28;20030;-84
2022/02/17 07:15:50;;;;;;;20.83;19.73;;;13.10;83.50;;;;;;4957308;28;20046;-87
2022/02/17 07:18:16;;;;;;;20.50;19.60;;;13.10;83.50;;;;;;4964521;28;20028;-92
2022/02/17 07:20:43;;;;;;;22.02;20.63;;;13.00;83.30;;;;;;4964267;29;20023;-94
2022/02/17 07:23:10;;;;;;;20.52;19.55;;;13.10;83.40;;;;;;4967025;28;20050;-89
2022/02/17 07:25:37;;;;;;;19.48;18.58;;;13.10;83.30;;;;;;4972218;28;20023;-94
2022/02/17 07:28:03;;;;;;;20.33;19.33;;;13.10;83.30;;;;;;4965758;29;20050;-91
2022/02/17 07:30:29;;;;;;;19.52;18.63;;;13.10;83.30;;;;;;4951374;28;20046;-89
2022/02/17 07:32:56;;;;;;;23.23;21.58;;;13.10;83.30;;;;;;4954192;28;20053;-90
2022/02/17 07:35:22;;;;;;;21.00;19.90;;;13.10;83.30;;;;;;4954639;28;20394;-90
2022/02/17 07:37:48;;;;;;;20.38;19.38;;;13.20;83.30;;;;;;4955498;29;20035;-92
2022/02/17 07:40:17;;;;;;;20.77;19.80;;;13.20;83.20;;;;;;4955518;28;20497;-90
2022/02/17 07:42:45;;;;;;;21.00;20.00;;;13.30;83.20;;;;;;4961077;28;20050;-91
2022/02/17 07:45:12;;;;;;;23.08;21.88;;;13.30;83.10;;;;;;4955572;28;20023;-90
2022/02/17 07:47:42;;;;;;;22.02;20.98;;;13.30;83.10;;;;;;4958322;28;20482;-89
2022/02/17 07:50:08;;;;;;;22.02;20.58;;;13.30;83.00;;;;;;4946399;29;20027;-90
2022/02/17 07:52:34;;;;;;;21.88;20.77;;;13.30;83.00;;;;;;4956611;28;20023;-92
2022/02/17 07:55:00;;;;;;;22.05;20.95;;;13.30;83.00;;;;;;4954528;28;20398;-91
2022/02/17 07:57:26;;;;;;;21.35;20.25;;;13.40;83.00;;;;;;4954511;28;20026;-92
2022/02/17 07:59:52;;;;;;;21.15;20.15;;;13.40;82.90;;;;;;4955394;28;20480;-91
2022/02/17 08:02:18;;;;;;;23.42;22.13;;;13.40;82.80;;;;;;4954195;28;20042;-91
2022/02/17 08:04:45;;;;;;;21.08;20.08;;;13.50;82.90;;;;;;4955160;29;20465;-92
2022/02/17 08:07:11;;;;;;;21.30;20.30;;;13.60;82.70;;;;;;4955216;29;20038;-92
2022/02/17 08:09:37;;;;;;;21.85;20.77;;;13.80;82.30;;;;;;4951987;28;20050;-92
2022/02/17 08:12:04;;;;;;;1999.90;999.90;;;14.10;81.70;;;;;;4947217;28;20039;-93
2022/02/17 08:14:30;;;;;;;1999.90;999.90;;;14.40;81.10;;;;;;4960827;28;20032;-92
2022/02/17 08:16:56;;;;;;;1999.90;999.90;;;14.60;80.40;;;;;;4941048;28;20096;-90
2022/02/17 08:19:22;;;;;;;1999.90;999.90;;;14.80;80.00;;;;;;4947954;28;20027;-89
2022/02/17 08:21:49;;;;;;;1999.90;999.90;;;15.00;79.50;;;;;;4949544;29;20027;-89
2022/02/17 08:24:16;;;;;;;1999.90;999.90;;;15.20;79.30;;;;;;4952230;28;20043;-91
2022/02/17 08:26:42;;;;;;;1999.90;999.90;;;15.30;78.90;;;;;;4943980;28;20484;-92
2022/02/17 08:29:08;;;;;;;1999.90;999.90;;;15.50;78.70;;;;;;4945631;28;20039;-90
2022/02/17 08:31:34;;;;;;;1999.90;999.90;;;15.70;78.30;;;;;;4967744;28;20031;-91
2022/02/17 08:34:03;;;;;;;1999.90;999.90;;;15.90;78.00;;;;;;4947558;28;20047;-91
2022/02/17 08:36:30;;;;;;;1999.90;999.90;;;16.00;77.70;;;;;;4965535;28;20058;-89
2022/02/17 08:38:56;;;;;;;1999.90;999.90;;;16.20;77.50;;;;;;4953726;28;20112;-91
2022/02/17 08:41:23;;;;;;;1999.90;999.90;;;16.30;77.10;;;;;;4940718;29;20031;-89
2022/02/17 08:43:49;;;;;;;1999.90;999.90;;;16.40;76.90;;;;;;4950433;28;20032;-87
2022/02/17 08:46:16;;;;;;;1999.90;999.90;;;16.60;76.80;;;;;;4944230;28;20036;-90
2022/02/17 08:48:42;;;;;;;1999.90;999.90;;;16.70;76.60;;;;;;4937560;29;20063;-90
2022/02/17 08:51:09;;;;;;;1999.90;999.90;;;16.80;76.40;;;;;;4941097;28;20051;-87
2022/02/17 08:53:35;;;;;;;1999.90;999.90;;;16.90;76.20;;;;;;4967058;28;20058;-89
2022/02/17 08:56:01;;;;;;;1999.90;999.90;;;17.00;76.10;;;;;;4949605;28;20049;-89
2022/02/17 08:58:27;;;;;;;1999.90;999.90;;;17.00;76.00;;;;;;4950572;28;20039;-89
2022/02/17 09:00:55;;;;;;;1999.90;999.90;;;17.10;76.00;;;;;;4940842;28;20036;-90
2022/02/17 09:03:21;;;;;;;1999.90;999.90;;;17.10;75.90;;;;;;4956572;28;20049;-84
2022/02/17 09:05:47;;;;;;;1999.90;999.90;;;17.10;75.80;;;;;;4964606;28;20031;-87
2022/02/17 09:08:13;;;;;;;1999.90;999.90;;;17.10;75.80;;;;;;4964556;28;20034;-88
2022/02/17 09:10:40;;;;;;;1999.90;999.90;;;17.10;75.90;;;;;;4965182;28;20481;-88
2022/02/17 09:13:06;;;;;;;1999.90;999.90;;;17.10;76.70;;;;;;4966358;28;20050;-88
2022/02/17 09:15:32;;;;;;;1999.90;999.90;;;17.20;75.80;;;;;;4955809;28;20022;-88
2022/02/17 09:17:59;;;;;;;1999.90;999.90;;;17.30;75.60;;;;;;4958014;28;20043;-89
2022/02/17 09:20:25;;;;;;;1999.90;999.90;;;17.30;75.60;;;;;;4957629;28;20031;-88
2022/02/17 09:22:51;;;;;;;1999.90;999.90;;;17.40;75.40;;;;;;4957458;28;20082;-88
2022/02/17 09:25:17;;;;;;;1999.90;999.90;;;17.50;75.20;;;;;;4957065;28;20022;-88
2022/02/17 09:27:43;;;;;;;1999.90;999.90;;;17.50;75.10;;;;;;4953626;28;20058;-91
2022/02/17 09:30:09;;;;;;;1999.90;999.90;;;17.50;75.20;;;;;;4958699;28;20038;-87
2022/02/17 09:32:39;;;;;;;1999.90;999.90;;;17.30;75.30;;;;;;4953156;28;20042;-90
2022/02/17 09:35:05;;;;;;;1999.90;999.90;;;17.20;75.60;;;;;;4919603;28;20051;-88
2022/02/17 09:37:31;;;;;;;1999.90;999.90;;;17.20;75.70;;;;;;4951817;29;20034;-87
2022/02/17 09:39:59;;;;;;;1999.90;999.90;;;17.30;75.80;;;;;;4957958;28;20405;-89
2022/02/17 09:42:25;;;;;;;1999.90;999.90;;;17.20;75.50;;;;;;4951910;28;20039;-85
2022/02/17 09:44:51;;;;;;;1999.90;999.90;;;17.20;75.70;;;;;;4961821;28;20043;-86
2022/02/17 09:47:17;;;;;;;1999.90;999.90;;;17.30;76.50;;;;;;4944079;28;20517;-88
2022/02/17 09:49:44;;;;;;;1999.90;999.90;;;17.40;75.50;;;;;;4957738;28;20042;-87
2022/02/17 09:52:11;;;;;;;1999.90;999.90;;;17.50;75.30;;;;;;4951583;28;20047;-85
2022/02/17 09:54:37;;;;;;;1999.90;999.90;;;17.60;75.00;;;;;;4953035;28;20516;-92
2022/02/17 09:57:04;;;;;;;1999.90;999.90;;;17.70;74.70;;;;;;4955648;28;20045;-88
2022/02/17 09:59:31;;;;;;;1999.90;999.90;;;17.80;74.40;;;;;;4954513;28;20034;-88
2022/02/17 10:01:59;;;;;;;1999.90;999.90;;;17.90;74.20;;;;;;4952402;28;20034;-88
2022/02/17 10:04:26;;;;;;;1999.90;999.90;;;18.10;73.90;;;;;;4943466;28;20039;-88
2022/02/17 10:06:55;;;;;;;1999.90;999.90;;;18.10;73.60;;;;;;4966891;28;20046;-87
2022/02/17 10:09:21;;;;;;;1999.90;999.90;;;18.20;73.30;;;;;;4956691;28;20040;-87
2022/02/17 10:11:48;;;;;;;1999.90;999.90;;;18.20;73.30;;;;;;4966825;28;20050;-90
2022/02/17 10:14:16;;;;;;;1999.90;999.90;;;18.20;73.30;;;;;;4960333;28;20047;-86
2022/02/17 10:16:52;;;;;;;1999.90;999.90;;;18.20;73.30;;;;;;4943874;28;20518;-90
2022/02/17 10:19:19;;;;;;;1999.90;999.90;;;18.10;73.50;;;;;;4968220;28;20042;-89
2022/02/17 10:21:45;;;;;;;1999.90;999.90;;;18.00;73.70;;;;;;4956380;28;20046;-91
2022/02/17 10:24:41;;;;;;;1999.90;999.90;;;18.00;74.00;;;;;;4961778;28;20039;-89
2022/02/17 10:27:09;;;;;;;1999.90;999.90;;;17.90;74.10;;;;;;4947167;28;20043;-82
2022/02/17 10:29:36;;;;;;;1999.90;999.90;;;17.90;74.10;;;;;;4964158;28;20051;-78
2022/02/17 10:32:04;;;;;;;1999.90;999.90;;;18.00;74.00;;;;;;4960024;28;20489;-82
2022/02/17 10:34:31;;;;;;;1999.90;999.90;;;17.90;73.70;;;;;;4941780;28;20059;-80
2022/02/17 10:36:57;;;;;;;1999.90;999.90;;;18.00;73.80;;;;;;4964223;28;20034;-79
2022/02/17 10:39:26;;;;;;;1999.90;999.90;;;18.00;73.60;;;;;;4956979;28;20045;-87
2022/02/17 10:41:59;;;;;;;1999.90;999.90;;;18.10;73.40;;;;;;4961587;28;20031;-88
2022/02/17 10:44:30;;;;;;;1999.90;999.90;;;18.10;73.10;;;;;;4955522;28;20035;-86
2022/02/17 10:46:56;;;;;;;1999.90;999.90;;;18.20;73.20;;;;;;4951312;28;20509;-83
2022/02/17 10:49:23;;;;;;;1999.90;999.90;;;18.20;73.10;;;;;;4965526;28;20490;-83
2022/02/17 10:51:50;;;;;;;1999.90;999.90;;;18.30;72.70;;;;;;4939042;29;20039;-84
2022/02/17 10:54:19;;;;;;;1999.90;999.90;;;18.30;72.20;;;;;;4958919;28;20051;-84
2022/02/17 10:56:46;;;;;;;1999.90;999.90;;;18.30;72.20;;;;;;4959912;28;20051;-83
2022/02/17 11:01:57;;;;;;;1999.90;999.90;;;18.30;72.10;;;;;;4966818;28;20082;-89
2022/02/17 11:04:24;;;;;;;1999.90;999.90;;;18.20;71.90;;;;;;4967627;28;20045;-91
2022/02/17 11:06:51;;;;;;;1999.90;999.90;;;18.20;72.00;;;;;;4956601;28;20038;-92
2022/02/17 11:09:20;;;;;;;1999.90;999.90;;;18.30;71.80;;;;;;4966383;28;20035;-90
2022/02/17 11:11:51;;;;;;;1999.90;999.90;;;18.40;71.40;;;;;;4959677;28;20490;-91
2022/02/17 11:14:36;;;;;;;1999.90;999.90;;;18.50;71.10;;;;;;4958974;28;20066;-88
2022/02/17 11:17:03;;;;;;;1999.90;999.90;;;18.60;70.80;;;;;;4958958;28;20043;-90
2022/02/17 11:19:29;;;;;;;1999.90;999.90;;;18.70;70.60;;;;;;4966623;28;20042;-90
2022/02/17 11:21:55;;;;;;;1999.90;999.90;;;18.70;70.40;;;;;;4970631;28;20043;-89
2022/02/17 11:24:21;;;;;;;1999.90;999.90;;;18.70;70.30;;;;;;4942702;28;20035;-88
2022/02/17 11:26:47;;;;;;;1999.90;999.90;;;18.70;70.20;;;;;;4967657;28;20403;-88
2022/02/17 11:29:23;;;;;;;1999.90;999.90;;;18.70;70.10;;;;;;4946385;28;20051;-92
2022/02/17 11:31:57;;;;;;;1999.90;999.90;;;18.70;70.10;;;;;;4958420;28;20038;-92
2022/02/17 11:34:48;;;;;;;1999.90;999.90;;;18.80;69.90;;;;;;4958397;28;20047;-89
2022/02/17 11:37:25;;;;;;;1999.90;999.90;;;18.90;69.70;;;;;;4956915;28;20031;-88
2022/02/17 11:40:02;;;;;;;1999.90;999.90;;;18.90;69.10;;;;;;4944347;28;20047;-87
2022/02/17 11:42:32;;;;;;;1999.90;999.90;;;19.00;69.10;;;;;;4956471;28;20027;-87
2022/02/17 11:45:21;;;;;;;1999.90;999.90;;;19.10;68.80;;;;;;4964314;28;20037;-87
2022/02/17 11:48:00;;;;;;;1999.90;999.90;;;19.10;68.50;;;;;;4959529;28;20047;-87
2022/02/17 11:50:34;;;;;;;1999.90;999.90;;;19.20;68.40;;;;;;4967141;28;20030;-87
2022/02/17 11:53:25;;;;;;;1999.90;999.90;;;19.10;68.20;;;;;;4965054;28;20046;-90
2022/02/17 11:55:52;;;;;;;1999.90;999.90;;;19.10;68.30;;;;;;4965260;28;20035;-87
2022/02/17 11:58:40;;;;;;;1999.90;999.90;;;19.00;68.30;;;;;;4968297;28;20031;-86
2022/02/17 12:01:36;;;;;;;1999.90;999.90;;;19.00;68.40;;;;;;4966468;28;20054;-87
2022/02/17 12:04:08;;;;;;;1999.90;999.90;;;19.00;68.30;;;;;;4947712;28;20049;-89
2022/02/17 12:06:41;;;;;;;1999.90;999.90;;;19.10;68.20;;;;;;4971994;28;20039;-88
2022/02/17 12:09:08;;;;;;;1999.90;999.90;;;19.20;67.90;;;;;;4952039;28;20019;-89
2022/02/17 12:11:38;;;;;;;1999.90;999.90;;;19.40;67.70;;;;;;4959726;28;20038;-82
2022/02/17 12:14:05;;;;;;;1999.90;999.90;;;19.40;67.30;;;;;;4964786;28;20059;-83
2022/02/17 12:16:54;;;;;;;1999.90;999.90;;;19.40;67.10;;;;;;4967696;28;20023;-83
2022/02/17 12:19:20;;;;;;;1999.90;999.90;;;19.40;67.00;;;;;;4968507;28;20041;-83
2022/02/17 12:21:47;;;;;;;1999.90;999.90;;;19.40;67.00;;;;;;4954604;28;20054;-83
2022/02/17 12:24:14;;;;;;;1999.90;999.90;;;19.40;67.00;;;;;;4957933;28;20040;-84